Hlavní strana
METAR-TAF:

METAR-TAF

Letiště :

Calgary, Alberta, Kanada

Mezinárodní letiště Calgary

zeměpisná šířka: 51-07N, zeměpisná délka: 114-01W, výška: 1077 m

Aktuální stav počasí

Zpráva byla vytvořena před 18 minutami, v 19:00 UTC
Jižní vítr 12 kt s nárazy do 20 kt, proměnlivý mezi jihovýchodním a jihozápadním
Teplota 11°C
Vlhkost vzduchu 30%
Tlak 1028 hPa
Viditelnost: 64.4 km
Skoro jasno ve výšce 10000 ft
Skoro jasno ve výšce 30000 ft

METAR: CYYC 231900Z 17012G20KT 140V220 40SM FEW100 FEW300 11/M06 A3037 RMK AC1CI1 AC TR CI TR SLP317

Čas: 13:18 (19:18 UTC)

Předpověď počasí

Zpráva byla vytvořena před 1 hodinou a 40 minutami, v 17:38 UTC
Předpověď platná od 23 v 18 UTC do 24 v 18 UTC
Jižní vítr 12 kt
Viditelnost: 10 km
Skoro jasno ve výšce 10000 ft
Změna
od 24 v 04 UTC do 24 v 06 UTC
Jihozápadní vítr 5 kt

TAF: CYYC 231738Z 2318/2418 18012KT P6SM FEW100 BECMG 2404/2406 22005KT RMK NXT FCST BY 232100Z

Stav a předpovědi počasí z více než 4 000 letišť (zprávy METAR a TAF).

Červené a žluté tečky na mapě představují dostupné meteorologické stanice.

Když kurzor umístíte na tečku, zobrazí se název stanice.

Pak kliknutím zobrazíte stav a předpověď počasí.

Chcete-li změnit mapu, kliknutím na zelené tlačítko se znaménkem +mapu přiblížíte, kliknutím na zelené tlačítko se znaménkem – mapu oddálíte a kliknutím na zelené šipky přejdete na sousední mapy.


METAR-TAF: